Time;durP1;ratioP1;P1;durP2;ratioP2;P2;SDS_P1;SDS_P2;PMS_P1;PMS_P2;Temp;Humidity;BMP_temperature;BMP_pressure;BME280_temperature;BME280_humidity;BME280_pressure;Samples;Min_cycle;Max_cycle;Signal;HPM_P1;HPM_P2
2021/07/16 00:02:05;0.00;0.00;0.62;0.00;0.00;0.62;22.43;14.30;;;28.70;41.10;;;;;;2233304;62;20429;-61
2021/07/16 00:04:32;0.00;0.00;0.62;0.00;0.00;0.62;17.63;13.50;;;28.70;41.20;;;;;;2233396;62;20480;-60
2021/07/16 00:07:00;0.00;0.00;0.62;0.00;0.00;0.62;21.93;14.20;;;28.70;42.00;;;;;;2233487;62;20421;-60
2021/07/16 00:09:26;0.00;0.00;0.62;0.00;0.00;0.62;23.37;13.33;;;28.60;41.30;;;;;;2235033;62;20451;-61
2021/07/16 00:11:53;0.00;0.00;0.62;0.00;0.00;0.62;19.37;14.37;;;28.60;41.30;;;;;;2237480;62;20869;-62
2021/07/16 00:14:19;0.00;0.00;0.62;0.00;0.00;0.62;27.37;14.30;;;28.60;41.40;;;;;;2237134;62;20364;-62
2021/07/16 00:16:45;0.00;0.00;0.62;0.00;0.00;0.62;22.33;14.30;;;28.60;41.50;;;;;;2237519;62;20384;-60
2021/07/16 00:19:12;0.00;0.00;0.62;0.00;0.00;0.62;16.07;12.87;;;28.60;41.70;;;;;;2237368;62;20368;-60
2021/07/16 00:21:38;0.00;0.00;0.62;0.00;0.00;0.62;16.00;12.30;;;28.50;41.60;;;;;;2237522;62;20620;-62
2021/07/16 00:24:06;0.00;0.00;0.62;0.00;0.00;0.62;23.57;14.70;;;28.50;41.70;;;;;;2237611;62;20395;-61
2021/07/16 00:26:32;0.00;0.00;0.62;0.00;0.00;0.62;18.67;14.10;;;28.50;41.80;;;;;;2233616;62;20397;-60
2021/07/16 00:28:59;0.00;0.00;0.62;0.00;0.00;0.62;17.63;13.90;;;28.50;41.80;;;;;;2233724;62;20444;-61
2021/07/16 00:31:25;0.00;0.00;0.62;0.00;0.00;0.62;21.20;15.00;;;28.40;41.90;;;;;;2233487;62;20362;-60
2021/07/16 00:33:52;0.00;0.00;0.62;0.00;0.00;0.62;23.13;13.83;;;28.40;42.10;;;;;;2233732;62;20386;-61
2021/07/16 00:36:19;0.00;0.00;0.62;0.00;0.00;0.62;16.17;12.60;;;28.40;42.20;;;;;;2233316;62;20697;-61
2021/07/16 00:38:45;0.00;0.00;0.62;0.00;0.00;0.62;16.87;12.77;;;28.40;42.40;;;;;;2233445;62;20413;-62
2021/07/16 00:41:13;0.00;0.00;0.62;0.00;0.00;0.62;20.97;14.03;;;28.40;42.20;;;;;;2233363;62;20418;-62
2021/07/16 00:43:39;0.00;0.00;0.62;0.00;0.00;0.62;21.33;14.77;;;28.40;42.20;;;;;;2233720;62;20388;-61
2021/07/16 00:46:06;0.00;0.00;0.62;0.00;0.00;0.62;21.90;14.33;;;28.40;42.20;;;;;;2232827;62;20361;-61
2021/07/16 00:48:32;0.00;0.00;0.62;0.00;0.00;0.62;24.20;14.03;;;28.40;42.20;;;;;;2233946;62;20845;-61
2021/07/16 00:50:59;0.00;0.00;0.62;0.00;0.00;0.62;24.30;15.10;;;28.30;42.10;;;;;;2233674;62;20752;-60
2021/07/16 00:53:25;0.00;0.00;0.62;0.00;0.00;0.62;17.97;12.40;;;28.30;42.10;;;;;;2233474;62;20373;-61
2021/07/16 00:55:52;0.00;0.00;0.62;0.00;0.00;0.62;17.57;12.60;;;28.40;42.20;;;;;;2236482;62;20361;-62
2021/07/16 00:58:20;0.00;0.00;0.62;0.00;0.00;0.62;24.33;14.53;;;28.30;42.10;;;;;;2233502;62;20380;-61
2021/07/16 01:00:47;0.00;0.00;0.62;0.00;0.00;0.62;23.27;15.00;;;28.30;42.10;;;;;;2233514;62;20365;-61
2021/07/16 01:03:13;0.00;0.00;0.62;0.00;0.00;0.62;20.47;14.30;;;28.30;42.10;;;;;;2233055;62;20416;-60
2021/07/16 01:05:39;0.00;0.00;0.62;0.00;0.00;0.62;22.53;14.50;;;28.30;42.20;;;;;;2233384;62;20581;-61
2021/07/16 01:08:07;0.00;0.00;0.62;0.00;0.00;0.62;18.20;13.70;;;28.30;42.10;;;;;;2233646;62;20385;-60
2021/07/16 01:10:33;0.00;0.00;0.62;0.00;0.00;0.62;19.23;13.10;;;28.30;42.10;;;;;;2236886;62;20623;-61
2021/07/16 01:13:00;0.00;0.00;0.62;0.00;0.00;0.62;26.77;14.63;;;28.20;42.10;;;;;;2237583;62;20377;-61
2021/07/16 01:15:32;0.00;0.00;0.62;0.00;0.00;0.62;21.70;13.20;;;28.20;42.10;;;;;;2237341;62;20410;-61
2021/07/16 01:17:59;0.00;0.00;0.62;0.00;0.00;0.62;24.93;14.37;;;28.20;42.10;;;;;;2237333;62;20471;-61
2021/07/16 01:20:29;0.00;0.00;0.62;0.00;0.00;0.62;18.27;14.70;;;28.20;42.10;;;;;;2237367;62;20360;-62
2021/07/16 01:22:57;0.00;0.00;0.62;0.00;0.00;0.62;18.93;13.27;;;28.20;42.10;;;;;;2237388;62;20357;-61
2021/07/16 01:25:28;0.00;0.00;0.62;0.00;0.00;0.62;21.80;14.90;;;28.20;42.10;;;;;;2235392;62;20368;-61
2021/07/16 01:27:57;0.00;0.00;0.62;0.00;0.00;0.62;17.30;12.03;;;28.10;42.20;;;;;;2233422;62;20781;-61
2021/07/16 01:30:26;0.00;0.00;0.62;0.00;0.00;0.62;20.67;14.57;;;28.20;42.20;;;;;;2233610;62;20372;-61
2021/07/16 01:32:53;0.00;0.00;0.62;0.00;0.00;0.62;21.10;13.93;;;28.10;42.30;;;;;;2233707;62;20368;-61
2021/07/16 01:35:21;0.00;0.00;0.62;0.00;0.00;0.62;21.40;12.60;;;28.10;42.20;;;;;;2232884;62;20616;-60
2021/07/16 01:37:48;0.00;0.00;0.62;0.00;0.00;0.62;21.83;12.70;;;28.10;42.10;;;;;;2233520;62;20409;-61
2021/07/16 01:40:17;0.00;0.00;0.62;0.00;0.00;0.62;20.77;11.10;;;28.10;42.20;;;;;;2236440;62;20436;-61
2021/07/16 01:42:47;0.00;0.00;0.62;0.00;0.00;0.62;22.10;14.50;;;28.10;42.20;;;;;;2233363;62;20369;-60
2021/07/16 01:45:17;0.00;0.00;0.62;0.00;0.00;0.62;27.90;13.80;;;28.10;42.30;;;;;;2232753;62;20646;-61
2021/07/16 01:47:48;0.00;0.00;0.62;0.00;0.00;0.62;21.60;13.70;;;28.00;42.30;;;;;;2236434;62;20651;-61
2021/07/16 01:50:15;0.00;0.00;0.62;0.00;0.00;0.62;17.63;11.67;;;28.00;42.40;;;;;;2233624;62;20440;-61
2021/07/16 01:52:44;0.00;0.00;0.62;0.00;0.00;0.62;23.07;12.87;;;27.90;42.30;;;;;;2232826;62;20412;-61
2021/07/16 01:55:13;0.00;0.00;0.62;0.00;0.00;0.62;17.43;11.90;;;27.90;42.40;;;;;;2233577;62;20393;-62
2021/07/16 01:57:39;0.00;0.00;0.62;0.00;0.00;0.62;19.60;12.53;;;27.90;42.50;;;;;;2233439;62;20702;-62
2021/07/16 02:00:11;0.00;0.00;0.62;0.00;0.00;0.62;18.00;11.70;;;27.90;42.50;;;;;;2233323;62;20553;-61
2021/07/16 02:02:47;0.00;0.00;0.62;0.00;0.00;0.62;31.67;12.87;;;27.80;42.60;;;;;;2233367;62;20694;-61
2021/07/16 02:05:14;0.00;0.00;0.62;0.00;0.00;0.62;23.53;12.80;;;27.80;42.60;;;;;;2232705;62;20403;-59
2021/07/16 02:07:40;0.00;0.00;0.62;0.00;0.00;0.62;20.90;12.17;;;27.80;42.60;;;;;;2233413;62;20381;-61
2021/07/16 02:10:08;0.00;0.00;0.62;0.00;0.00;0.62;18.83;12.27;;;27.70;42.60;;;;;;2235730;62;20372;-62
2021/07/16 02:12:35;0.00;0.00;0.62;0.00;0.00;0.62;20.77;12.50;;;27.70;42.60;;;;;;2237488;62;20383;-61
2021/07/16 02:15:06;0.00;0.00;0.62;0.00;0.00;0.62;18.10;12.07;;;27.70;42.70;;;;;;2236722;62;20353;-62
2021/07/16 02:17:34;0.00;0.00;0.62;0.00;0.00;0.62;22.03;12.63;;;27.70;42.80;;;;;;2237087;62;20443;-61
2021/07/16 02:20:00;0.00;0.00;0.62;0.00;0.00;0.62;18.10;12.37;;;27.60;42.80;;;;;;2237369;62;20715;-62
2021/07/16 02:22:26;0.00;0.00;0.62;0.00;0.00;0.62;16.53;10.93;;;27.60;42.80;;;;;;2237281;62;20681;-61
2021/07/16 02:24:53;0.00;0.00;0.62;0.00;0.00;0.62;21.83;11.60;;;27.60;42.80;;;;;;2236223;62;20389;-62
2021/07/16 02:27:19;0.00;0.00;0.62;0.00;0.00;0.62;16.17;9.97;;;27.60;42.90;;;;;;2233451;62;20405;-61
2021/07/16 02:29:46;0.00;0.00;0.62;0.00;0.00;0.62;16.20;10.90;;;27.50;42.80;;;;;;2233386;62;20693;-62
2021/07/16 02:32:12;0.00;0.00;0.62;0.00;0.00;0.62;19.50;10.07;;;27.50;42.80;;;;;;2234217;62;20565;-62
2021/07/16 02:34:40;0.00;0.00;0.62;0.00;0.00;0.62;18.47;10.33;;;27.50;42.90;;;;;;2233772;62;20364;-62
2021/07/16 02:37:06;0.00;0.00;0.62;0.00;0.00;0.62;21.10;10.90;;;27.50;43.00;;;;;;2233564;62;20420;-61
2021/07/16 02:39:32;0.00;0.00;0.62;0.00;0.00;0.62;16.90;10.43;;;27.50;43.00;;;;;;2237158;62;20425;-59
2021/07/16 02:41:59;0.00;0.00;0.62;0.00;0.00;0.62;14.93;10.60;;;27.50;43.10;;;;;;2233842;62;20368;-63
2021/07/16 02:44:25;0.00;0.00;0.62;0.00;0.00;0.62;14.80;10.00;;;27.50;43.00;;;;;;2233388;62;20388;-60
2021/07/16 02:46:52;0.00;0.00;0.62;0.00;0.00;0.62;16.67;11.43;;;27.50;43.10;;;;;;2234109;62;20388;-62
2021/07/16 02:49:18;0.00;0.00;0.62;0.00;0.00;0.62;14.70;9.63;;;27.50;43.10;;;;;;2233874;62;20368;-62
2021/07/16 02:51:45;0.00;0.00;0.62;0.00;0.00;0.62;13.80;8.93;;;27.50;43.10;;;;;;2233949;62;20388;-62
2021/07/16 02:54:12;0.00;0.00;0.62;0.00;0.00;0.62;14.90;8.60;;;27.50;43.00;;;;;;2234109;62;20745;-61
2021/07/16 02:56:38;0.00;0.00;0.62;0.00;0.00;0.62;11.60;8.67;;;27.50;42.90;;;;;;2233783;62;20384;-62
2021/07/16 02:59:06;0.00;0.00;0.62;0.00;0.00;0.62;14.50;8.73;;;27.50;42.80;;;;;;2233955;62;20563;-62
2021/07/16 03:01:51;0.00;0.00;0.62;0.00;0.00;0.62;13.27;9.33;;;27.50;42.70;;;;;;2233992;62;20365;-60
2021/07/16 03:04:17;0.00;0.00;0.62;0.00;0.00;0.62;11.50;7.57;;;27.60;42.70;;;;;;2234166;62;20385;-62
2021/07/16 03:06:45;0.00;0.00;0.62;0.00;0.00;0.62;13.60;8.50;;;27.50;42.60;;;;;;2233652;62;20381;-62
2021/07/16 03:09:11;0.00;0.00;0.62;0.00;0.00;0.62;13.70;8.43;;;27.50;42.60;;;;;;2235061;62;20388;-62
2021/07/16 03:11:38;0.00;0.00;0.62;0.00;0.00;0.62;12.00;7.30;;;27.50;42.60;;;;;;2237906;62;20361;-62
2021/07/16 03:14:05;0.00;0.00;0.62;0.00;0.00;0.62;11.20;7.77;;;27.50;42.60;;;;;;2237245;62;20356;-62
2021/07/16 03:16:31;0.00;0.00;0.62;0.00;0.00;0.62;20.37;9.07;;;27.60;42.70;;;;;;2237624;62;20659;-62
2021/07/16 03:18:58;0.00;0.00;0.62;0.00;0.00;0.62;18.50;9.63;;;27.50;42.70;;;;;;2237692;62;20382;-61
2021/07/16 03:21:25;0.00;0.00;0.62;0.00;0.00;0.62;17.37;9.37;;;27.50;42.60;;;;;;2237761;62;20387;-62
2021/07/16 03:23:53;0.00;0.00;0.62;0.00;0.00;0.62;15.17;9.90;;;27.50;42.60;;;;;;2237938;62;20380;-61
2021/07/16 03:26:19;0.00;0.00;0.62;0.00;0.00;0.62;12.37;9.67;;;27.50;42.60;;;;;;2233986;62;20377;-61
2021/07/16 03:28:46;0.00;0.00;0.62;0.00;0.00;0.62;17.30;11.30;;;27.50;42.60;;;;;;2233922;62;20708;-62
2021/07/16 03:31:12;0.00;0.00;0.62;0.00;0.00;0.62;18.77;11.10;;;27.50;42.70;;;;;;2233983;62;20789;-62
2021/07/16 03:33:39;0.00;0.00;0.62;0.00;0.00;0.62;17.73;9.70;;;27.50;42.70;;;;;;2233669;62;20400;-62
2021/07/16 03:36:06;0.00;0.00;0.62;0.00;0.00;0.62;19.13;11.00;;;27.50;42.70;;;;;;2233757;62;20361;-61
2021/07/16 03:38:33;0.00;0.00;0.62;0.00;0.00;0.62;20.60;11.97;;;27.50;42.70;;;;;;2233935;62;20368;-61
2021/07/16 03:41:02;0.00;0.00;0.62;0.00;0.00;0.62;17.77;10.83;;;27.40;42.70;;;;;;2233372;62;20448;-61
2021/07/16 03:43:28;0.00;0.00;0.62;0.00;0.00;0.62;16.00;10.10;;;27.40;42.70;;;;;;2233715;62;20460;-62
2021/07/16 03:45:55;0.00;0.00;0.62;0.00;0.00;0.62;19.90;12.20;;;27.40;42.70;;;;;;2233870;62;20575;-60
2021/07/16 03:48:21;0.00;0.00;0.62;0.00;0.00;0.62;20.33;10.83;;;27.40;42.70;;;;;;2233169;62;20767;-61
2021/07/16 03:50:48;0.00;0.00;0.62;0.00;0.00;0.62;14.13;10.23;;;27.40;42.70;;;;;;2233347;62;20365;-61
2021/07/16 03:53:14;0.00;0.00;0.62;0.00;0.00;0.62;23.30;10.90;;;27.40;42.70;;;;;;2233872;62;20376;-61
2021/07/16 03:55:41;0.00;0.00;0.62;0.00;0.00;0.62;21.00;11.73;;;27.40;42.80;;;;;;2233460;62;20364;-61
2021/07/16 03:58:09;0.00;0.00;0.62;0.00;0.00;0.62;14.73;11.10;;;27.30;42.80;;;;;;2233719;62;20377;-61
2021/07/16 04:00:36;0.00;0.00;0.62;0.00;0.00;0.62;21.80;12.00;;;27.30;42.80;;;;;;2233902;62;20370;-61
2021/07/16 04:03:05;0.00;0.00;0.62;0.00;0.00;0.62;16.53;11.07;;;27.30;42.90;;;;;;2233475;62;20361;-62
2021/07/16 04:05:32;0.00;0.00;0.62;0.00;0.00;0.62;25.10;10.53;;;27.30;42.80;;;;;;2233671;62;20365;-61
2021/07/16 04:08:06;0.00;0.00;0.62;0.00;0.00;0.62;16.60;11.25;;;27.30;42.80;;;;;;2233715;62;20594;-60
2021/07/16 04:10:35;0.00;0.00;0.62;0.00;0.00;0.62;12.90;10.13;;;27.30;43.00;;;;;;2236800;62;20258;-62
2021/07/16 04:13:05;0.00;0.00;0.62;0.00;0.00;0.62;13.40;9.40;;;27.30;42.90;;;;;;2237759;62;20408;-63
2021/07/16 04:15:33;0.00;0.00;0.62;0.00;0.00;0.62;18.70;12.17;;;27.30;42.80;;;;;;2237630;62;20353;-61
2021/07/16 04:18:02;0.00;0.00;0.62;0.00;0.00;0.62;13.60;9.30;;;27.30;42.80;;;;;;2237469;62;20579;-63
2021/07/16 04:20:30;0.00;0.00;0.62;0.00;0.00;0.62;15.93;10.20;;;27.30;42.80;;;;;;2237630;62;20388;-64
2021/07/16 04:22:58;0.00;0.00;0.62;0.00;0.00;0.62;15.40;10.20;;;27.30;42.70;;;;;;2237106;62;20447;-61
2021/07/16 04:25:25;0.00;0.00;0.62;0.00;0.00;0.62;22.87;11.47;;;27.30;42.60;;;;;;2235348;62;20749;-63
2021/07/16 04:27:54;0.00;0.00;0.62;0.00;0.00;0.62;14.77;9.20;;;27.30;42.50;;;;;;2233751;62;20713;-59
2021/07/16 04:30:23;0.00;0.00;0.62;0.00;0.00;0.62;15.63;11.97;;;27.30;42.50;;;;;;2233574;62;20376;-63
2021/07/16 04:32:54;0.00;0.00;0.62;0.00;0.00;0.62;23.37;11.87;;;27.20;42.40;;;;;;2236427;62;20633;-63
2021/07/16 04:35:21;0.00;0.00;0.62;0.00;0.00;0.62;25.90;12.97;;;27.20;42.50;;;;;;2233095;62;20405;-61
2021/07/16 04:37:47;0.00;0.00;0.62;0.00;0.00;0.62;23.90;12.57;;;27.20;42.40;;;;;;2233585;62;20396;-63
2021/07/16 04:40:18;0.00;0.00;0.62;0.00;0.00;0.62;19.17;10.97;;;27.10;42.30;;;;;;2233586;62;20444;-62
2021/07/16 04:42:48;0.00;0.00;0.62;0.00;0.00;0.62;17.63;11.10;;;27.10;42.20;;;;;;2233620;62;20365;-63
2021/07/16 04:45:15;0.00;0.00;0.62;0.00;0.00;0.62;12.53;10.20;;;27.10;42.20;;;;;;2233532;62;20520;-62
2021/07/16 04:47:43;0.00;0.00;0.62;0.00;0.00;0.62;11.73;9.83;;;27.10;42.20;;;;;;2232885;62;20392;-62
2021/07/16 04:50:12;0.00;0.00;0.62;0.00;0.00;0.62;15.80;10.10;;;27.00;42.10;;;;;;2233152;62;20357;-63
2021/07/16 04:52:39;0.00;0.00;0.62;0.00;0.00;0.62;14.67;10.40;;;27.00;42.10;;;;;;2233064;62;20416;-61
2021/07/16 04:55:06;0.00;0.00;0.62;0.00;0.00;0.62;13.87;10.53;;;27.00;42.20;;;;;;2236353;62;20358;-62
2021/07/16 04:57:32;0.00;0.00;0.62;0.00;0.00;0.62;16.50;9.90;;;26.90;42.20;;;;;;2233552;62;20389;-63
2021/07/16 04:59:59;0.00;0.00;0.62;0.00;0.00;0.62;15.50;8.90;;;26.90;42.30;;;;;;2233798;62;20357;-62
2021/07/16 05:02:25;0.00;0.00;0.62;0.00;0.00;0.62;15.97;10.00;;;26.90;42.40;;;;;;2233808;62;20397;-64
2021/07/16 05:04:52;0.00;0.00;0.62;0.00;0.00;0.62;11.53;8.30;;;26.90;42.50;;;;;;2233518;62;20397;-63
2021/07/16 05:07:21;0.00;0.00;0.62;0.00;0.00;0.62;13.60;8.73;;;26.90;42.40;;;;;;2233251;62;20592;-62
2021/07/16 05:09:48;0.00;0.00;0.62;0.00;0.00;0.62;12.13;9.07;;;26.90;42.40;;;;;;2235758;62;20399;-61
2021/07/16 05:12:15;0.00;0.00;0.62;0.00;0.00;0.62;10.40;7.77;;;26.90;42.40;;;;;;2237484;62;20360;-62
2021/07/16 05:14:41;0.00;0.00;0.62;0.00;0.00;0.62;17.93;8.77;;;26.90;42.40;;;;;;2237158;62;20353;-65
2021/07/16 05:17:08;0.00;0.00;0.62;0.00;0.00;0.62;12.57;8.50;;;27.00;42.40;;;;;;2237618;62;20384;-61
2021/07/16 05:19:34;0.00;0.00;0.62;0.00;0.00;0.62;11.20;7.97;;;27.00;42.30;;;;;;2242545;56;20727;-62
2021/07/16 05:22:01;0.00;0.00;0.62;0.00;0.00;0.62;13.63;8.00;;;27.00;42.30;;;;;;2232272;62;20381;-61
2021/07/16 05:24:30;0.00;0.00;0.62;0.00;0.00;0.62;18.87;8.63;;;27.00;42.30;;;;;;2233527;62;20381;-64
2021/07/16 05:26:57;0.00;0.00;0.62;0.00;0.00;0.62;12.90;8.93;;;27.00;42.20;;;;;;2233735;62;20389;-64
2021/07/16 05:29:23;0.00;0.00;0.62;0.00;0.00;0.62;13.97;8.70;;;27.10;42.20;;;;;;2233330;62;20420;-62
2021/07/16 05:31:50;0.00;0.00;0.62;0.00;0.00;0.62;16.77;10.30;;;27.10;42.10;;;;;;2233984;62;20365;-63
2021/07/16 05:34:17;0.00;0.00;0.62;0.00;0.00;0.62;17.60;11.30;;;27.10;42.00;;;;;;2233961;62;20361;-62
2021/07/16 05:36:43;0.00;0.00;0.62;0.00;0.00;0.62;17.93;12.33;;;27.00;41.80;;;;;;2233262;62;20740;-59
2021/07/16 05:39:10;0.00;0.00;0.62;0.00;0.00;0.62;17.37;12.03;;;27.00;41.80;;;;;;2233887;62;20677;-63
2021/07/16 05:41:37;0.00;0.00;0.62;0.00;0.00;0.62;15.10;11.97;;;27.00;41.90;;;;;;2233158;62;20381;-63
2021/07/16 05:44:04;0.00;0.00;0.62;0.00;0.00;0.62;22.33;12.23;;;27.00;41.90;;;;;;2235554;62;20388;-63
2021/07/16 05:46:31;0.00;0.00;0.62;0.00;0.00;0.62;19.30;11.97;;;27.00;41.90;;;;;;2229716;62;20425;-63
2021/07/16 05:48:58;0.00;0.00;0.62;0.00;0.00;0.62;16.30;11.33;;;27.00;41.90;;;;;;2230852;62;20739;-63
2021/07/16 05:51:24;0.00;0.00;0.62;0.00;0.00;0.62;19.70;12.10;;;27.00;41.80;;;;;;2232180;62;21283;-67
2021/07/16 05:53:51;0.00;0.00;0.62;0.00;0.00;0.62;16.27;12.13;;;27.00;41.80;;;;;;2233007;62;20689;-66
2021/07/16 05:56:17;0.00;0.00;0.62;0.00;0.00;0.62;23.43;12.30;;;27.00;41.80;;;;;;2233226;62;20365;-64
2021/07/16 05:58:45;0.00;0.00;0.62;0.00;0.00;0.62;14.57;10.30;;;27.00;41.90;;;;;;2233178;62;20373;-60
2021/07/16 06:01:11;0.00;0.00;0.62;0.00;0.00;0.62;21.23;12.17;;;27.00;41.90;;;;;;2233222;62;20366;-61
2021/07/16 06:03:38;0.00;0.00;0.62;0.00;0.00;0.62;16.97;11.90;;;27.00;41.80;;;;;;2233176;62;20392;-60
2021/07/16 06:06:04;0.00;0.00;0.62;0.00;0.00;0.62;18.57;11.20;;;26.90;41.70;;;;;;2233506;62;20595;-60
2021/07/16 06:08:30;0.00;0.00;0.62;0.00;0.00;0.62;21.20;12.10;;;26.90;41.70;;;;;;2233756;62;20578;-63
2021/07/16 06:10:57;0.00;0.00;0.62;0.00;0.00;0.62;20.17;11.97;;;26.90;41.70;;;;;;2232568;62;20711;-62
2021/07/16 06:13:25;0.00;0.00;0.62;0.00;0.00;0.62;17.10;11.73;;;26.90;41.50;;;;;;2233627;62;20599;-61
2021/07/16 06:15:53;0.00;0.00;0.62;0.00;0.00;0.62;16.70;11.33;;;26.90;41.60;;;;;;2232401;62;20377;-60
2021/07/16 06:18:19;0.00;0.00;0.62;0.00;0.00;0.62;17.27;12.53;;;26.90;41.70;;;;;;2230054;62;20729;-61
2021/07/16 06:20:46;0.00;0.00;0.62;0.00;0.00;0.62;18.57;11.40;;;26.90;41.60;;;;;;2229703;62;20514;-62
2021/07/16 06:23:12;0.00;0.00;0.62;0.00;0.00;0.62;17.83;11.20;;;26.90;41.50;;;;;;2229833;62;20363;-60
2021/07/16 06:25:39;0.00;0.00;0.62;0.00;0.00;0.62;20.10;11.33;;;26.90;41.60;;;;;;2230103;62;20677;-61
2021/07/16 06:28:07;0.00;0.00;0.62;0.00;0.00;0.62;18.43;11.23;;;26.80;41.50;;;;;;2232402;62;20389;-62
2021/07/16 06:30:34;0.00;0.00;0.62;0.00;0.00;0.62;18.37;10.77;;;26.80;41.50;;;;;;2229744;62;20449;-61
2021/07/16 06:33:01;0.00;0.00;0.62;0.00;0.00;0.62;15.53;11.00;;;26.80;41.50;;;;;;2232860;62;20369;-63
2021/07/16 06:35:28;0.00;0.00;0.62;0.00;0.00;0.62;15.40;10.27;;;26.80;41.60;;;;;;2229616;62;20569;-62
2021/07/16 06:37:54;0.00;0.00;0.62;0.00;0.00;0.62;18.33;11.20;;;26.80;41.50;;;;;;2229746;62;20424;-63
2021/07/16 06:40:21;0.00;0.00;0.62;0.00;0.00;0.62;13.13;10.53;;;26.80;41.50;;;;;;2229631;62;20405;-61
2021/07/16 06:42:47;0.00;0.00;0.62;0.00;0.00;0.62;19.03;10.57;;;26.80;41.50;;;;;;2229839;62;20649;-61
2021/07/16 06:45:13;0.00;0.00;0.62;0.00;0.00;0.62;15.37;11.17;;;26.80;41.50;;;;;;2229620;62;20385;-63
2021/07/16 06:47:40;0.00;0.00;0.62;0.00;0.00;0.62;15.00;10.77;;;26.90;41.60;;;;;;2230119;62;20385;-63
2021/07/16 06:50:10;0.00;0.00;0.62;0.00;0.00;0.62;14.00;9.13;;;26.90;41.60;;;;;;2233046;62;20387;-61
2021/07/16 06:52:36;0.00;0.00;0.62;0.00;0.00;0.62;12.80;9.00;;;26.90;41.50;;;;;;2233649;62;20365;-62
2021/07/16 06:55:04;0.00;0.00;0.62;0.00;0.00;0.62;16.90;9.70;;;26.90;41.40;;;;;;2233984;62;20640;-63
2021/07/16 06:57:31;0.00;0.00;0.62;0.00;0.00;0.62;14.57;8.53;;;26.90;41.50;;;;;;2233566;62;20381;-63
2021/07/16 06:59:57;0.00;0.00;0.62;0.00;0.00;0.62;15.10;8.50;;;26.90;41.60;;;;;;2233673;62;20358;-62
2021/07/16 07:02:23;0.00;0.00;0.62;0.00;0.00;0.62;13.70;9.80;;;26.90;41.60;;;;;;2233984;62;20580;-63
2021/07/16 07:04:50;0.00;0.00;0.62;0.00;0.00;0.62;14.80;9.30;;;26.90;41.60;;;;;;2233531;62;20405;-63
2021/07/16 07:07:18;0.00;0.00;0.62;0.00;0.00;0.62;9.47;7.97;;;27.00;41.60;;;;;;2233010;62;20425;-67
2021/07/16 07:09:44;0.00;0.00;0.62;0.00;0.00;0.62;15.83;9.93;;;27.00;41.60;;;;;;2233676;62;20444;-62
2021/07/16 07:12:11;0.00;0.00;0.62;0.00;0.00;0.62;12.17;7.67;;;27.00;41.60;;;;;;2235853;62;20361;-65
2021/07/16 07:14:37;0.00;0.00;0.62;0.00;0.00;0.62;12.63;8.80;;;27.10;41.70;;;;;;2233219;62;20584;-63
2021/07/16 07:17:04;0.00;0.00;0.62;0.00;0.00;0.62;9.60;8.03;;;27.10;41.60;;;;;;2234024;62;20382;-61
2021/07/16 07:19:30;0.00;0.00;0.62;0.00;0.00;0.62;9.43;7.20;;;27.10;41.60;;;;;;2233913;62;20373;-60
2021/07/16 07:21:57;0.00;0.00;0.62;0.00;0.00;0.62;13.80;8.50;;;27.10;41.60;;;;;;2234046;62;20397;-61
2021/07/16 07:24:24;0.00;0.00;0.62;0.00;0.00;0.62;9.00;7.37;;;27.20;41.60;;;;;;2234468;62;20392;-64
2021/07/16 07:26:54;0.00;0.00;0.62;0.00;0.00;0.62;12.70;8.10;;;27.20;41.50;;;;;;2236471;62;20747;-62
2021/07/16 07:29:21;0.00;0.00;0.62;0.00;0.00;0.62;14.03;8.23;;;27.20;41.40;;;;;;2234061;62;20592;-61
2021/07/16 07:31:47;0.00;0.00;0.62;0.00;0.00;0.62;19.03;9.37;;;27.20;41.40;;;;;;2234535;62;20440;-61
2021/07/16 07:34:14;0.00;0.00;0.62;0.00;0.00;0.62;10.23;6.93;;;27.20;41.40;;;;;;2233915;62;20357;-63
2021/07/16 07:36:40;0.00;0.00;0.62;0.00;0.00;0.62;11.87;7.87;;;27.20;41.40;;;;;;2234038;62;20377;-65
2021/07/16 07:39:07;0.00;0.00;0.62;0.00;0.00;0.62;15.77;8.73;;;27.30;41.50;;;;;;2234380;62;20586;-63
2021/07/16 07:41:36;0.00;0.00;0.62;0.00;0.00;0.62;10.77;7.30;;;27.30;41.50;;;;;;2233868;62;20376;-66
2021/07/16 07:44:03;0.00;0.00;0.62;0.00;0.00;0.62;17.83;8.60;;;27.30;41.50;;;;;;2234091;62;20404;-63
2021/07/16 07:46:29;0.00;0.00;0.62;0.00;0.00;0.62;12.13;7.43;;;27.30;41.50;;;;;;2234415;62;20405;-62
2021/07/16 07:48:55;0.00;0.00;0.62;0.00;0.00;0.62;10.40;7.20;;;27.30;41.50;;;;;;2233857;62;20401;-60
2021/07/16 07:51:22;0.00;0.00;0.62;0.00;0.00;0.62;13.87;7.27;;;27.40;41.50;;;;;;2234056;62;20595;-62
2021/07/16 07:53:48;0.00;0.00;0.62;0.00;0.00;0.62;11.70;6.40;;;27.40;41.50;;;;;;2234297;62;20364;-62
2021/07/16 07:56:15;0.00;0.00;0.62;0.00;0.00;0.62;7.77;6.80;;;27.40;41.50;;;;;;2233720;62;20440;-63
2021/07/16 07:58:42;0.00;0.00;0.62;0.00;0.00;0.62;11.67;7.30;;;27.40;41.50;;;;;;2234056;62;20589;-61
2021/07/16 08:01:09;0.00;0.00;0.62;0.00;0.00;0.62;8.60;6.83;;;27.40;41.50;;;;;;2234287;62;20388;-64
2021/07/16 08:03:36;0.00;0.00;0.62;0.00;0.00;0.62;12.40;7.97;;;27.50;41.60;;;;;;2233703;62;20464;-58
2021/07/16 08:06:02;0.00;0.00;0.62;0.00;0.00;0.62;9.73;6.67;;;27.50;41.60;;;;;;2234007;62;20366;-60
2021/07/16 08:08:29;0.00;0.00;0.62;0.00;0.00;0.62;9.13;7.00;;;27.50;41.60;;;;;;2236977;62;20426;-63
2021/07/16 08:10:55;0.00;0.00;0.62;0.00;0.00;0.62;9.97;6.60;;;27.60;41.70;;;;;;2233815;62;20369;-60
2021/07/16 08:13:21;0.00;0.00;0.62;0.00;0.00;0.62;10.20;7.20;;;27.60;41.60;;;;;;2234048;62;20362;-63
2021/07/16 08:15:49;0.00;0.00;0.62;0.00;0.00;0.62;10.20;6.57;;;27.60;41.60;;;;;;2234166;62;20369;-60
2021/07/16 08:18:16;0.00;0.00;0.62;0.00;0.00;0.62;7.53;6.30;;;27.60;41.50;;;;;;2233755;62;20392;-64
2021/07/16 08:20:42;0.00;0.00;0.62;0.00;0.00;0.62;11.03;7.07;;;27.60;41.50;;;;;;2234058;62;20383;-63
2021/07/16 08:23:09;0.00;0.00;0.62;0.00;0.00;0.62;12.07;6.93;;;27.70;41.50;;;;;;2236713;62;20592;-67
2021/07/16 08:25:35;0.00;0.00;0.62;0.00;0.00;0.62;9.17;6.83;;;27.70;41.50;;;;;;2233657;62;20391;-62
2021/07/16 08:28:02;0.00;0.00;0.62;0.00;0.00;0.62;13.27;6.60;;;27.70;41.40;;;;;;2233800;62;20456;-61
2021/07/16 08:30:29;0.00;0.00;0.62;0.00;0.00;0.62;12.13;6.37;;;27.70;41.40;;;;;;2234204;62;20365;-60
2021/07/16 08:32:58;0.00;0.00;0.62;0.00;0.00;0.62;9.17;6.20;;;27.70;41.40;;;;;;2233628;62;20400;-62
2021/07/16 08:35:24;0.00;0.00;0.62;0.00;0.00;0.62;8.50;6.87;;;27.80;41.40;;;;;;2233849;62;20693;-63
2021/07/16 08:37:51;0.00;0.00;0.62;0.00;0.00;0.62;9.60;6.83;;;27.80;41.40;;;;;;2234082;62;20373;-63
2021/07/16 08:40:17;0.00;0.00;0.62;0.00;0.00;0.62;11.50;6.97;;;27.80;41.30;;;;;;2233532;62;20361;-63
2021/07/16 08:42:46;0.00;0.00;0.62;0.00;0.00;0.62;13.87;7.80;;;27.80;41.30;;;;;;2233877;62;20361;-62
2021/07/16 08:45:13;0.00;0.00;0.62;0.00;0.00;0.62;11.40;7.50;;;27.80;41.00;;;;;;2234108;62;20389;-62
2021/07/16 08:47:41;0.00;0.00;0.62;0.00;0.00;0.62;11.83;6.83;;;27.80;40.70;;;;;;2233668;62;20620;-64
2021/07/16 08:50:12;0.00;0.00;0.62;0.00;0.00;0.62;10.90;6.80;;;27.90;40.80;;;;;;2230550;62;20887;-61
2021/07/16 08:52:40;0.00;0.00;0.62;0.00;0.00;0.62;11.87;7.10;;;27.80;40.80;;;;;;2230287;62;20373;-62
2021/07/16 08:55:07;0.00;0.00;0.62;0.00;0.00;0.62;9.23;6.57;;;27.90;40.80;;;;;;2229641;62;20449;-62
2021/07/16 08:57:34;0.00;0.00;0.62;0.00;0.00;0.62;11.00;6.30;;;27.80;40.80;;;;;;2229962;62;20385;-66
2021/07/16 09:00:00;0.00;0.00;0.62;0.00;0.00;0.62;8.13;6.80;;;27.80;40.80;;;;;;2230230;62;20373;-63
2021/07/16 09:02:29;0.00;0.00;0.62;0.00;0.00;0.62;10.70;7.00;;;27.80;40.80;;;;;;2229624;62;20355;-63
2021/07/16 09:04:59;0.00;0.00;0.62;0.00;0.00;0.62;7.60;6.07;;;27.90;40.90;;;;;;2229907;62;20405;-63
2021/07/16 09:07:28;0.00;0.00;0.62;0.00;0.00;0.62;9.70;5.63;;;27.90;40.90;;;;;;2230241;62;20428;-63
2021/07/16 09:10:06;0.00;0.00;0.62;0.00;0.00;0.62;7.93;5.77;;;27.90;40.90;;;;;;2229621;62;20377;-61
2021/07/16 09:12:35;0.00;0.00;0.62;0.00;0.00;0.62;8.07;6.10;;;27.90;40.90;;;;;;2230047;62;20654;-61
2021/07/16 09:15:08;0.00;0.00;0.62;0.00;0.00;0.62;9.30;5.83;;;27.90;40.90;;;;;;2232807;62;20358;-63
2021/07/16 09:17:36;0.00;0.00;0.62;0.00;0.00;0.62;7.30;6.37;;;28.00;40.90;;;;;;2229609;62;20725;-62
2021/07/16 09:20:03;0.00;0.00;0.62;0.00;0.00;0.62;9.23;6.10;;;28.00;40.90;;;;;;2229933;62;20378;-63
2021/07/16 09:22:34;0.00;0.00;0.62;0.00;0.00;0.62;12.90;7.60;;;28.00;40.90;;;;;;2230025;62;20358;-63
2021/07/16 09:25:04;0.00;0.00;0.62;0.00;0.00;0.62;10.30;7.60;;;28.00;40.60;;;;;;2229546;62;20397;-62
2021/07/16 09:27:35;0.00;0.00;0.62;0.00;0.00;0.62;15.53;8.30;;;28.00;40.30;;;;;;2229456;62;20441;-65
2021/07/16 09:30:19;0.00;0.00;0.62;0.00;0.00;0.62;10.53;6.77;;;28.00;40.20;;;;;;2230048;62;20725;-62
2021/07/16 09:32:48;0.00;0.00;0.62;0.00;0.00;0.62;11.17;8.07;;;28.00;40.20;;;;;;2229676;62;20737;-64
2021/07/16 09:35:19;0.00;0.00;0.62;0.00;0.00;0.62;11.23;7.77;;;28.00;40.00;;;;;;2229921;62;20437;-65